sensor_id;sensor_type;location;lat;lon;timestamp;temperature;humidity
67093;SHT31;54011;50.772;7.730;2023-07-16T00:00:16;25.22;60.51
67093;SHT31;54011;50.772;7.730;2023-07-16T00:02:48;25.24;60.39
67093;SHT31;54011;50.772;7.730;2023-07-16T00:05:13;25.30;60.11
67093;SHT31;54011;50.772;7.730;2023-07-16T00:07:42;25.14;60.55
67093;SHT31;54011;50.772;7.730;2023-07-16T00:10:08;25.22;60.34
67093;SHT31;54011;50.772;7.730;2023-07-16T00:12:34;25.27;60.33
67093;SHT31;54011;50.772;7.730;2023-07-16T00:15:02;24.90;61.08
67093;SHT31;54011;50.772;7.730;2023-07-16T00:17:30;25.03;60.95
67093;SHT31;54011;50.772;7.730;2023-07-16T00:19:57;24.74;60.98
67093;SHT31;54011;50.772;7.730;2023-07-16T00:22:23;24.59;61.81
67093;SHT31;54011;50.772;7.730;2023-07-16T00:24:52;24.87;60.97
67093;SHT31;54011;50.772;7.730;2023-07-16T00:27:18;24.16;62.87
67093;SHT31;54011;50.772;7.730;2023-07-16T00:29:45;24.36;62.29
67093;SHT31;54011;50.772;7.730;2023-07-16T00:32:11;24.26;62.29
67093;SHT31;54011;50.772;7.730;2023-07-16T00:34:36;23.95;63.25
67093;SHT31;54011;50.772;7.730;2023-07-16T00:37:03;24.15;62.69
67093;SHT31;54011;50.772;7.730;2023-07-16T00:39:29;24.26;62.51
67093;SHT31;54011;50.772;7.730;2023-07-16T00:41:58;24.30;62.47
67093;SHT31;54011;50.772;7.730;2023-07-16T00:44:30;24.22;62.52
67093;SHT31;54011;50.772;7.730;2023-07-16T00:46:56;24.32;62.13
67093;SHT31;54011;50.772;7.730;2023-07-16T00:49:22;24.28;62.01
67093;SHT31;54011;50.772;7.730;2023-07-16T00:51:49;24.19;62.73
67093;SHT31;54011;50.772;7.730;2023-07-16T00:54:16;23.84;63.05
67093;SHT31;54011;50.772;7.730;2023-07-16T00:56:44;23.98;62.51
67093;SHT31;54011;50.772;7.730;2023-07-16T00:59:09;23.82;62.57
67093;SHT31;54011;50.772;7.730;2023-07-16T01:01:35;24.15;61.79
67093;SHT31;54011;50.772;7.730;2023-07-16T01:04:02;24.15;62.03
67093;SHT31;54011;50.772;7.730;2023-07-16T01:06:35;24.18;62.11
67093;SHT31;54011;50.772;7.730;2023-07-16T01:09:07;23.70;63.30
67093;SHT31;54011;50.772;7.730;2023-07-16T01:11:34;24.37;61.88
67093;SHT31;54011;50.772;7.730;2023-07-16T01:14:02;24.15;61.71
67093;SHT31;54011;50.772;7.730;2023-07-16T01:16:28;23.95;62.23
67093;SHT31;54011;50.772;7.730;2023-07-16T01:18:55;24.19;62.01
67093;SHT31;54011;50.772;7.730;2023-07-16T01:21:23;24.04;62.45
67093;SHT31;54011;50.772;7.730;2023-07-16T01:27:08;23.86;62.92
67093;SHT31;54011;50.772;7.730;2023-07-16T01:29:42;23.65;63.69
67093;SHT31;54011;50.772;7.730;2023-07-16T01:32:11;23.31;63.82
67093;SHT31;54011;50.772;7.730;2023-07-16T01:34:38;23.65;63.49
67093;SHT31;54011;50.772;7.730;2023-07-16T01:37:04;23.94;62.94
67093;SHT31;54011;50.772;7.730;2023-07-16T01:39:31;23.99;62.87
67093;SHT31;54011;50.772;7.730;2023-07-16T01:41:58;23.75;63.52
67093;SHT31;54011;50.772;7.730;2023-07-16T01:44:23;23.33;64.16
67093;SHT31;54011;50.772;7.730;2023-07-16T01:47:05;23.46;64.18
67093;SHT31;54011;50.772;7.730;2023-07-16T01:49:32;23.84;63.32
67093;SHT31;54011;50.772;7.730;2023-07-16T01:51:59;23.47;64.31
67093;SHT31;54011;50.772;7.730;2023-07-16T01:54:27;23.62;64.06
67093;SHT31;54011;50.772;7.730;2023-07-16T01:56:57;23.33;64.66
67093;SHT31;54011;50.772;7.730;2023-07-16T01:59:25;23.61;64.19
67093;SHT31;54011;50.772;7.730;2023-07-16T02:01:55;23.53;64.10
67093;SHT31;54011;50.772;7.730;2023-07-16T02:04:24;23.40;64.43
67093;SHT31;54011;50.772;7.730;2023-07-16T02:06:49;23.31;64.59
67093;SHT31;54011;50.772;7.730;2023-07-16T02:09:20;23.26;65.07
67093;SHT31;54011;50.772;7.730;2023-07-16T02:11:46;23.04;65.33
67093;SHT31;54011;50.772;7.730;2023-07-16T02:14:12;23.02;65.45
67093;SHT31;54011;50.772;7.730;2023-07-16T02:16:39;23.17;65.18
67093;SHT31;54011;50.772;7.730;2023-07-16T02:19:04;22.92;65.95
67093;SHT31;54011;50.772;7.730;2023-07-16T02:21:30;23.07;65.37
67093;SHT31;54011;50.772;7.730;2023-07-16T02:23:55;22.72;66.13
67093;SHT31;54011;50.772;7.730;2023-07-16T02:26:21;23.04;65.54
67093;SHT31;54011;50.772;7.730;2023-07-16T02:28:47;22.63;66.49
67093;SHT31;54011;50.772;7.730;2023-07-16T02:31:14;22.96;65.55
67093;SHT31;54011;50.772;7.730;2023-07-16T02:33:40;22.48;66.70
67093;SHT31;54011;50.772;7.730;2023-07-16T02:36:07;22.40;66.88
67093;SHT31;54011;50.772;7.730;2023-07-16T02:38:33;22.79;66.25
67093;SHT31;54011;50.772;7.730;2023-07-16T02:40:59;22.55;66.99
67093;SHT31;54011;50.772;7.730;2023-07-16T02:43:26;22.27;67.37
67093;SHT31;54011;50.772;7.730;2023-07-16T02:45:52;22.34;67.33
67093;SHT31;54011;50.772;7.730;2023-07-16T02:48:17;22.35;67.17
67093;SHT31;54011;50.772;7.730;2023-07-16T02:50:43;22.20;67.48
67093;SHT31;54011;50.772;7.730;2023-07-16T02:53:10;22.40;66.76
67093;SHT31;54011;50.772;7.730;2023-07-16T02:55:36;22.15;67.26
67093;SHT31;54011;50.772;7.730;2023-07-16T02:58:02;22.22;67.42
67093;SHT31;54011;50.772;7.730;2023-07-16T03:00:32;22.51;66.81
67093;SHT31;54011;50.772;7.730;2023-07-16T03:02:58;22.55;66.58
67093;SHT31;54011;50.772;7.730;2023-07-16T03:05:28;22.27;67.37
67093;SHT31;54011;50.772;7.730;2023-07-16T03:07:56;22.13;67.27
67093;SHT31;54011;50.772;7.730;2023-07-16T03:10:22;22.38;66.55
67093;SHT31;54011;50.772;7.730;2023-07-16T03:12:48;22.15;67.28
67093;SHT31;54011;50.772;7.730;2023-07-16T03:15:13;22.15;67.23
67093;SHT31;54011;50.772;7.730;2023-07-16T03:17:39;21.84;67.75
67093;SHT31;54011;50.772;7.730;2023-07-16T03:20:06;22.08;66.86
67093;SHT31;54011;50.772;7.730;2023-07-16T03:22:32;22.00;67.47
67093;SHT31;54011;50.772;7.730;2023-07-16T03:24:58;21.82;67.76
67093;SHT31;54011;50.772;7.730;2023-07-16T03:27:23;21.91;67.63
67093;SHT31;54011;50.772;7.730;2023-07-16T03:29:54;21.80;67.93
67093;SHT31;54011;50.772;7.730;2023-07-16T03:32:21;21.76;68.14
67093;SHT31;54011;50.772;7.730;2023-07-16T03:34:47;21.76;68.14
67093;SHT31;54011;50.772;7.730;2023-07-16T03:37:13;21.90;67.89
67093;SHT31;54011;50.772;7.730;2023-07-16T03:39:39;21.83;68.11
67093;SHT31;54011;50.772;7.730;2023-07-16T03:42:06;21.73;68.22
67093;SHT31;54011;50.772;7.730;2023-07-16T03:44:32;21.62;68.55
67093;SHT31;54011;50.772;7.730;2023-07-16T03:46:59;21.59;68.47
67093;SHT31;54011;50.772;7.730;2023-07-16T03:49:24;21.38;69.02
67093;SHT31;54011;50.772;7.730;2023-07-16T03:51:50;21.38;69.00
67093;SHT31;54011;50.772;7.730;2023-07-16T03:54:16;21.56;68.56
67093;SHT31;54011;50.772;7.730;2023-07-16T03:56:42;21.56;68.60
67093;SHT31;54011;50.772;7.730;2023-07-16T03:59:09;21.62;68.41
67093;SHT31;54011;50.772;7.730;2023-07-16T04:01:35;21.49;68.52
67093;SHT31;54011;50.772;7.730;2023-07-16T04:04:02;21.54;68.63
67093;SHT31;54011;50.772;7.730;2023-07-16T04:06:29;21.67;67.75
67093;SHT31;54011;50.772;7.730;2023-07-16T04:08:54;21.54;68.11
67093;SHT31;54011;50.772;7.730;2023-07-16T04:11:23;21.70;67.62
67093;SHT31;54011;50.772;7.730;2023-07-16T04:13:50;21.35;68.35
67093;SHT31;54011;50.772;7.730;2023-07-16T04:16:16;21.54;67.58
67093;SHT31;54011;50.772;7.730;2023-07-16T04:18:41;21.28;68.49
67093;SHT31;54011;50.772;7.730;2023-07-16T04:21:08;21.32;68.06
67093;SHT31;54011;50.772;7.730;2023-07-16T04:23:35;21.36;68.13
67093;SHT31;54011;50.772;7.730;2023-07-16T04:26:08;21.50;67.52
67093;SHT31;54011;50.772;7.730;2023-07-16T04:28:34;21.60;67.11
67093;SHT31;54011;50.772;7.730;2023-07-16T04:31:00;21.83;66.71
67093;SHT31;54011;50.772;7.730;2023-07-16T04:33:26;21.66;66.59
67093;SHT31;54011;50.772;7.730;2023-07-16T04:35:52;21.46;67.55
67093;SHT31;54011;50.772;7.730;2023-07-16T04:38:18;21.73;66.47
67093;SHT31;54011;50.772;7.730;2023-07-16T04:40:44;21.72;66.55
67093;SHT31;54011;50.772;7.730;2023-07-16T04:43:09;21.45;67.52
67093;SHT31;54011;50.772;7.730;2023-07-16T04:45:36;21.59;67.02
67093;SHT31;54011;50.772;7.730;2023-07-16T04:48:02;21.90;66.21
67093;SHT31;54011;50.772;7.730;2023-07-16T04:50:28;21.47;67.06
67093;SHT31;54011;50.772;7.730;2023-07-16T04:52:54;21.90;66.55
67093;SHT31;54011;50.772;7.730;2023-07-16T04:55:20;21.80;66.94
67093;SHT31;54011;50.772;7.730;2023-07-16T04:57:46;21.84;66.59
67093;SHT31;54011;50.772;7.730;2023-07-16T05:00:12;21.74;66.79
67093;SHT31;54011;50.772;7.730;2023-07-16T05:02:38;21.72;66.37
67093;SHT31;54011;50.772;7.730;2023-07-16T05:05:04;21.97;65.73
67093;SHT31;54011;50.772;7.730;2023-07-16T05:07:30;21.82;65.83
67093;SHT31;54011;50.772;7.730;2023-07-16T05:09:56;21.87;65.70
67093;SHT31;54011;50.772;7.730;2023-07-16T05:12:22;21.79;65.69
67093;SHT31;54011;50.772;7.730;2023-07-16T05:14:48;22.25;64.75
67093;SHT31;54011;50.772;7.730;2023-07-16T05:17:14;21.86;65.55
67093;SHT31;54011;50.772;7.730;2023-07-16T05:19:42;22.10;64.63
67093;SHT31;54011;50.772;7.730;2023-07-16T05:22:08;22.21;64.50
67093;SHT31;54011;50.772;7.730;2023-07-16T05:24:34;22.27;64.16
67093;SHT31;54011;50.772;7.730;2023-07-16T05:27:00;22.32;63.87
67093;SHT31;54011;50.772;7.730;2023-07-16T05:29:27;22.21;63.91
67093;SHT31;54011;50.772;7.730;2023-07-16T05:31:54;22.04;63.66
67093;SHT31;54011;50.772;7.730;2023-07-16T05:34:20;22.31;63.09
67093;SHT31;54011;50.772;7.730;2023-07-16T05:36:46;22.48;62.15
67093;SHT31;54011;50.772;7.730;2023-07-16T05:39:12;22.49;62.31
67093;SHT31;54011;50.772;7.730;2023-07-16T05:41:40;22.58;62.11
67093;SHT31;54011;50.772;7.730;2023-07-16T05:44:06;22.45;62.20
67093;SHT31;54011;50.772;7.730;2023-07-16T05:46:33;22.47;62.02
67093;SHT31;54011;50.772;7.730;2023-07-16T05:48:59;22.55;61.72
67093;SHT31;54011;50.772;7.730;2023-07-16T05:51:24;22.71;60.83
67093;SHT31;54011;50.772;7.730;2023-07-16T05:53:50;22.90;60.96
67093;SHT31;54011;50.772;7.730;2023-07-16T05:56:15;22.88;60.65
67093;SHT31;54011;50.772;7.730;2023-07-16T05:58:41;22.82;60.90
67093;SHT31;54011;50.772;7.730;2023-07-16T06:01:06;22.55;61.20
67093;SHT31;54011;50.772;7.730;2023-07-16T06:03:32;22.62;61.12
67093;SHT31;54011;50.772;7.730;2023-07-16T06:05:57;23.03;60.28
67093;SHT31;54011;50.772;7.730;2023-07-16T06:08:24;22.89;60.47
67093;SHT31;54011;50.772;7.730;2023-07-16T06:10:51;22.85;60.73
67093;SHT31;54011;50.772;7.730;2023-07-16T06:13:18;23.06;60.23
67093;SHT31;54011;50.772;7.730;2023-07-16T06:15:45;23.27;59.35
67093;SHT31;54011;50.772;7.730;2023-07-16T06:18:11;23.31;58.89
67093;SHT31;54011;50.772;7.730;2023-07-16T06:20:38;23.13;59.60
67093;SHT31;54011;50.772;7.730;2023-07-16T06:23:07;22.95;59.09
67093;SHT31;54011;50.772;7.730;2023-07-16T06:25:33;23.27;58.52
67093;SHT31;54011;50.772;7.730;2023-07-16T06:27:58;23.49;58.00
67093;SHT31;54011;50.772;7.730;2023-07-16T06:30:25;23.53;57.99
67093;SHT31;54011;50.772;7.730;2023-07-16T06:32:52;23.55;58.05
67093;SHT31;54011;50.772;7.730;2023-07-16T06:35:17;24.40;56.32
67093;SHT31;54011;50.772;7.730;2023-07-16T06:37:44;23.97;57.52
67093;SHT31;54011;50.772;7.730;2023-07-16T06:40:12;24.21;56.69
67093;SHT31;54011;50.772;7.730;2023-07-16T06:42:38;23.74;56.76
67093;SHT31;54011;50.772;7.730;2023-07-16T06:45:06;23.51;56.89
67093;SHT31;54011;50.772;7.730;2023-07-16T06:47:31;23.71;55.76
67093;SHT31;54011;50.772;7.730;2023-07-16T06:49:57;23.71;56.30
67093;SHT31;54011;50.772;7.730;2023-07-16T06:52:24;23.84;56.03
67093;SHT31;54011;50.772;7.730;2023-07-16T06:54:53;23.71;55.92
67093;SHT31;54011;50.772;7.730;2023-07-16T06:57:18;23.53;55.99
67093;SHT31;54011;50.772;7.730;2023-07-16T06:59:44;23.26;55.87
67093;SHT31;54011;50.772;7.730;2023-07-16T07:02:11;23.91;54.80
67093;SHT31;54011;50.772;7.730;2023-07-16T07:04:38;23.88;54.76
67093;SHT31;54011;50.772;7.730;2023-07-16T07:07:05;23.44;53.73
67093;SHT31;54011;50.772;7.730;2023-07-16T07:09:31;23.46;54.14
67093;SHT31;54011;50.772;7.730;2023-07-16T07:11:56;23.84;53.05
67093;SHT31;54011;50.772;7.730;2023-07-16T07:14:22;24.01;52.29
67093;SHT31;54011;50.772;7.730;2023-07-16T07:16:48;23.85;52.20
67093;SHT31;54011;50.772;7.730;2023-07-16T07:19:15;23.75;51.92
67093;SHT31;54011;50.772;7.730;2023-07-16T07:21:40;23.71;51.51
67093;SHT31;54011;50.772;7.730;2023-07-16T07:24:05;23.62;51.30
67093;SHT31;54011;50.772;7.730;2023-07-16T07:26:31;23.99;51.27
67093;SHT31;54011;50.772;7.730;2023-07-16T07:28:56;24.26;50.38
67093;SHT31;54011;50.772;7.730;2023-07-16T07:31:22;24.40;50.18
67093;SHT31;54011;50.772;7.730;2023-07-16T07:33:47;23.91;50.61
67093;SHT31;54011;50.772;7.730;2023-07-16T07:36:12;24.08;49.82
67093;SHT31;54011;50.772;7.730;2023-07-16T07:38:38;24.23;50.22
67093;SHT31;54011;50.772;7.730;2023-07-16T07:41:07;24.35;49.75
67093;SHT31;54011;50.772;7.730;2023-07-16T07:43:33;24.46;49.53
67093;SHT31;54011;50.772;7.730;2023-07-16T07:45:58;24.43;50.37
67093;SHT31;54011;50.772;7.730;2023-07-16T07:48:24;24.29;50.62
67093;SHT31;54011;50.772;7.730;2023-07-16T07:50:49;24.44;50.17
67093;SHT31;54011;50.772;7.730;2023-07-16T07:53:16;24.76;49.82
67093;SHT31;54011;50.772;7.730;2023-07-16T07:55:44;24.92;48.76
67093;SHT31;54011;50.772;7.730;2023-07-16T07:58:10;24.84;48.53
67093;SHT31;54011;50.772;7.730;2023-07-16T08:00:36;24.90;48.38
67093;SHT31;54011;50.772;7.730;2023-07-16T08:03:01;24.61;48.15
67093;SHT31;54011;50.772;7.730;2023-07-16T08:05:27;25.53;47.47
67093;SHT31;54011;50.772;7.730;2023-07-16T08:07:52;25.27;47.32
67093;SHT31;54011;50.772;7.730;2023-07-16T08:10:19;25.01;47.91
67093;SHT31;54011;50.772;7.730;2023-07-16T08:12:46;25.52;47.27
67093;SHT31;54011;50.772;7.730;2023-07-16T08:15:11;25.37;46.90
67093;SHT31;54011;50.772;7.730;2023-07-16T08:17:44;25.37;46.69
67093;SHT31;54011;50.772;7.730;2023-07-16T08:20:11;25.06;45.96
67093;SHT31;54011;50.772;7.730;2023-07-16T08:22:37;25.12;46.62
67093;SHT31;54011;50.772;7.730;2023-07-16T08:25:04;25.06;46.84
67093;SHT31;54011;50.772;7.730;2023-07-16T08:27:30;25.53;46.50
67093;SHT31;54011;50.772;7.730;2023-07-16T08:29:55;25.35;45.77
67093;SHT31;54011;50.772;7.730;2023-07-16T08:32:21;25.89;45.01
67093;SHT31;54011;50.772;7.730;2023-07-16T08:34:47;25.93;43.99
67093;SHT31;54011;50.772;7.730;2023-07-16T08:37:13;26.19;44.03
67093;SHT31;54011;50.772;7.730;2023-07-16T08:39:40;26.36;44.39
67093;SHT31;54011;50.772;7.730;2023-07-16T08:42:09;26.26;43.96
67093;SHT31;54011;50.772;7.730;2023-07-16T08:44:37;26.75;43.70
67093;SHT31;54011;50.772;7.730;2023-07-16T08:47:05;26.78;43.59
67093;SHT31;54011;50.772;7.730;2023-07-16T08:49:34;26.45;43.90
67093;SHT31;54011;50.772;7.730;2023-07-16T08:52:04;27.02;44.26
67093;SHT31;54011;50.772;7.730;2023-07-16T08:54:30;27.06;43.53
67093;SHT31;54011;50.772;7.730;2023-07-16T08:56:56;27.05;43.14
67093;SHT31;54011;50.772;7.730;2023-07-16T08:59:22;26.71;42.17
67093;SHT31;54011;50.772;7.730;2023-07-16T09:01:48;27.19;41.56
67093;SHT31;54011;50.772;7.730;2023-07-16T09:04:15;27.32;41.69
67093;SHT31;54011;50.772;7.730;2023-07-16T09:06:41;26.87;41.97
67093;SHT31;54011;50.772;7.730;2023-07-16T09:09:06;27.33;41.30
67093;SHT31;54011;50.772;7.730;2023-07-16T09:11:33;26.78;41.68
67093;SHT31;54011;50.772;7.730;2023-07-16T09:14:01;26.45;42.94
67093;SHT31;54011;50.772;7.730;2023-07-16T09:16:27;26.94;42.94
67093;SHT31;54011;50.772;7.730;2023-07-16T09:18:52;26.91;41.32
67093;SHT31;54011;50.772;7.730;2023-07-16T09:21:18;26.77;42.29
67093;SHT31;54011;50.772;7.730;2023-07-16T09:23:44;27.47;41.84
67093;SHT31;54011;50.772;7.730;2023-07-16T09:26:10;26.85;42.29
67093;SHT31;54011;50.772;7.730;2023-07-16T09:28:36;28.02;40.80
67093;SHT31;54011;50.772;7.730;2023-07-16T09:31:07;27.80;40.13
67093;SHT31;54011;50.772;7.730;2023-07-16T09:33:33;27.74;39.77
67093;SHT31;54011;50.772;7.730;2023-07-16T09:36:02;28.44;38.87
67093;SHT31;54011;50.772;7.730;2023-07-16T09:38:28;28.18;39.55
67093;SHT31;54011;50.772;7.730;2023-07-16T09:40:56;28.99;39.17
67093;SHT31;54011;50.772;7.730;2023-07-16T09:43:21;28.58;38.57
67093;SHT31;54011;50.772;7.730;2023-07-16T09:45:47;28.63;38.97
67093;SHT31;54011;50.772;7.730;2023-07-16T09:48:14;29.41;37.86
67093;SHT31;54011;50.772;7.730;2023-07-16T09:50:49;28.60;37.89
67093;SHT31;54011;50.772;7.730;2023-07-16T09:53:18;29.02;37.64
67093;SHT31;54011;50.772;7.730;2023-07-16T09:55:45;28.48;37.68
67093;SHT31;54011;50.772;7.730;2023-07-16T09:58:12;29.00;37.22
67093;SHT31;54011;50.772;7.730;2023-07-16T10:00:39;28.69;36.77
67093;SHT31;54011;50.772;7.730;2023-07-16T10:03:10;29.59;37.23
67093;SHT31;54011;50.772;7.730;2023-07-16T10:05:37;29.53;36.30
67093;SHT31;54011;50.772;7.730;2023-07-16T10:08:05;29.78;36.34
67093;SHT31;54011;50.772;7.730;2023-07-16T10:10:43;30.43;36.38
67093;SHT31;54011;50.772;7.730;2023-07-16T10:13:11;30.56;36.01
67093;SHT31;54011;50.772;7.730;2023-07-16T10:15:38;30.76;35.93
67093;SHT31;54011;50.772;7.730;2023-07-16T10:18:05;29.82;36.75
67093;SHT31;54011;50.772;7.730;2023-07-16T10:20:32;29.61;36.37
67093;SHT31;54011;50.772;7.730;2023-07-16T10:23:09;30.06;35.95
67093;SHT31;54011;50.772;7.730;2023-07-16T10:25:35;30.27;35.66
67093;SHT31;54011;50.772;7.730;2023-07-16T10:28:01;30.25;36.41
67093;SHT31;54011;50.772;7.730;2023-07-16T10:30:28;29.82;35.97
67093;SHT31;54011;50.772;7.730;2023-07-16T10:32:54;29.03;37.43
67093;SHT31;54011;50.772;7.730;2023-07-16T10:35:20;30.16;36.69
67093;SHT31;54011;50.772;7.730;2023-07-16T10:37:46;30.83;35.95
67093;SHT31;54011;50.772;7.730;2023-07-16T10:40:13;29.65;36.25
67093;SHT31;54011;50.772;7.730;2023-07-16T10:42:41;29.99;36.33
67093;SHT31;54011;50.772;7.730;2023-07-16T10:45:08;30.25;35.99
67093;SHT31;54011;50.772;7.730;2023-07-16T10:47:37;30.84;35.11
67093;SHT31;54011;50.772;7.730;2023-07-16T10:50:05;31.36;34.66
67093;SHT31;54011;50.772;7.730;2023-07-16T10:52:31;31.49;34.93
67093;SHT31;54011;50.772;7.730;2023-07-16T10:54:57;30.20;36.20
67093;SHT31;54011;50.772;7.730;2023-07-16T10:57:24;28.63;37.20
67093;SHT31;54011;50.772;7.730;2023-07-16T10:59:57;29.92;36.61
67093;SHT31;54011;50.772;7.730;2023-07-16T11:02:24;29.55;36.87
67093;SHT31;54011;50.772;7.730;2023-07-16T11:04:51;28.96;37.80
67093;SHT31;54011;50.772;7.730;2023-07-16T11:07:22;29.45;37.38
67093;SHT31;54011;50.772;7.730;2023-07-16T11:09:53;28.75;37.19
67093;SHT31;54011;50.772;7.730;2023-07-16T11:12:22;31.12;34.92
67093;SHT31;54011;50.772;7.730;2023-07-16T11:14:51;29.65;36.27
67093;SHT31;54011;50.772;7.730;2023-07-16T11:17:17;29.21;37.10
67093;SHT31;54011;50.772;7.730;2023-07-16T11:19:46;29.59;37.06
67093;SHT31;54011;50.772;7.730;2023-07-16T11:22:12;30.04;35.03
67093;SHT31;54011;50.772;7.730;2023-07-16T11:24:43;30.64;35.52
67093;SHT31;54011;50.772;7.730;2023-07-16T11:27:13;31.15;34.58
67093;SHT31;54011;50.772;7.730;2023-07-16T11:29:40;30.97;34.22
67093;SHT31;54011;50.772;7.730;2023-07-16T11:32:07;30.52;35.78
67093;SHT31;54011;50.772;7.730;2023-07-16T11:34:32;30.30;35.40
67093;SHT31;54011;50.772;7.730;2023-07-16T11:37:10;31.05;34.35
67093;SHT31;54011;50.772;7.730;2023-07-16T11:39:36;31.66;33.47
67093;SHT31;54011;50.772;7.730;2023-07-16T11:42:03;30.78;33.90
67093;SHT31;54011;50.772;7.730;2023-07-16T11:44:33;32.84;33.07
67093;SHT31;54011;50.772;7.730;2023-07-16T11:46:59;33.66;32.85
67093;SHT31;54011;50.772;7.730;2023-07-16T11:49:26;31.98;33.35
67093;SHT31;54011;50.772;7.730;2023-07-16T11:51:52;33.27;32.18
67093;SHT31;54011;50.772;7.730;2023-07-16T11:54:18;33.40;32.42
67093;SHT31;54011;50.772;7.730;2023-07-16T11:56:44;31.28;34.05
67093;SHT31;54011;50.772;7.730;2023-07-16T11:59:09;31.07;33.55
67093;SHT31;54011;50.772;7.730;2023-07-16T12:01:35;30.08;34.81
67093;SHT31;54011;50.772;7.730;2023-07-16T12:04:00;30.27;34.90
67093;SHT31;54011;50.772;7.730;2023-07-16T12:06:25;30.12;35.38
67093;SHT31;54011;50.772;7.730;2023-07-16T12:08:51;30.13;36.09
67093;SHT31;54011;50.772;7.730;2023-07-16T12:11:16;31.29;34.42
67093;SHT31;54011;50.772;7.730;2023-07-16T12:13:43;31.32;33.42
67093;SHT31;54011;50.772;7.730;2023-07-16T12:16:08;30.19;34.93
67093;SHT31;54011;50.772;7.730;2023-07-16T12:18:34;31.82;33.65
67093;SHT31;54011;50.772;7.730;2023-07-16T12:21:00;31.93;34.28
67093;SHT31;54011;50.772;7.730;2023-07-16T12:23:27;33.37;32.72
67093;SHT31;54011;50.772;7.730;2023-07-16T12:25:52;33.59;31.85
67093;SHT31;54011;50.772;7.730;2023-07-16T12:28:20;32.75;33.49
67093;SHT31;54011;50.772;7.730;2023-07-16T12:30:46;32.40;33.38
67093;SHT31;54011;50.772;7.730;2023-07-16T12:33:11;33.60;32.72
67093;SHT31;54011;50.772;7.730;2023-07-16T12:35:37;34.69;31.51
67093;SHT31;54011;50.772;7.730;2023-07-16T12:38:02;34.47;31.62
67093;SHT31;54011;50.772;7.730;2023-07-16T12:40:29;32.04;33.08
67093;SHT31;54011;50.772;7.730;2023-07-16T12:42:55;30.97;33.86
67093;SHT31;54011;50.772;7.730;2023-07-16T12:45:21;30.40;34.32
67093;SHT31;54011;50.772;7.730;2023-07-16T12:47:47;32.20;32.62
67093;SHT31;54011;50.772;7.730;2023-07-16T12:50:15;31.50;35.00
67093;SHT31;54011;50.772;7.730;2023-07-16T12:52:42;30.71;34.42
67093;SHT31;54011;50.772;7.730;2023-07-16T12:55:08;30.35;35.65
67093;SHT31;54011;50.772;7.730;2023-07-16T12:57:34;29.02;36.06
67093;SHT31;54011;50.772;7.730;2023-07-16T13:00:01;29.69;36.81
67093;SHT31;54011;50.772;7.730;2023-07-16T13:02:30;29.85;36.18
67093;SHT31;54011;50.772;7.730;2023-07-16T13:04:55;30.80;35.84
67093;SHT31;54011;50.772;7.730;2023-07-16T13:07:22;31.70;34.28
67093;SHT31;54011;50.772;7.730;2023-07-16T13:09:47;31.98;33.63
67093;SHT31;54011;50.772;7.730;2023-07-16T13:12:13;30.67;34.65
67093;SHT31;54011;50.772;7.730;2023-07-16T13:14:39;30.35;35.56
67093;SHT31;54011;50.772;7.730;2023-07-16T13:17:05;29.51;34.83
67093;SHT31;54011;50.772;7.730;2023-07-16T13:19:30;30.13;34.94
67093;SHT31;54011;50.772;7.730;2023-07-16T13:21:56;30.09;35.07
67093;SHT31;54011;50.772;7.730;2023-07-16T13:24:23;30.29;34.48
67093;SHT31;54011;50.772;7.730;2023-07-16T13:26:50;29.82;36.02
67093;SHT31;54011;50.772;7.730;2023-07-16T13:29:17;29.79;35.74
67093;SHT31;54011;50.772;7.730;2023-07-16T13:31:44;29.47;36.10
67093;SHT31;54011;50.772;7.730;2023-07-16T13:34:10;29.76;36.33
67093;SHT31;54011;50.772;7.730;2023-07-16T13:36:37;30.73;34.62
67093;SHT31;54011;50.772;7.730;2023-07-16T13:39:02;30.46;35.75
67093;SHT31;54011;50.772;7.730;2023-07-16T13:41:30;30.36;35.11
67093;SHT31;54011;50.772;7.730;2023-07-16T13:43:55;31.19;33.82
67093;SHT31;54011;50.772;7.730;2023-07-16T13:46:21;30.01;35.48
67093;SHT31;54011;50.772;7.730;2023-07-16T13:48:46;30.27;35.24
67093;SHT31;54011;50.772;7.730;2023-07-16T13:51:12;31.55;35.44
67093;SHT31;54011;50.772;7.730;2023-07-16T13:53:37;31.52;34.62
67093;SHT31;54011;50.772;7.730;2023-07-16T13:56:03;31.93;33.39
67093;SHT31;54011;50.772;7.730;2023-07-16T13:58:29;30.87;34.52
67093;SHT31;54011;50.772;7.730;2023-07-16T14:00:55;30.04;35.79
67093;SHT31;54011;50.772;7.730;2023-07-16T14:03:20;30.23;35.50
67093;SHT31;54011;50.772;7.730;2023-07-16T14:05:46;30.50;35.12
67093;SHT31;54011;50.772;7.730;2023-07-16T14:08:13;31.55;34.86
67093;SHT31;54011;50.772;7.730;2023-07-16T14:10:39;29.74;35.61
67093;SHT31;54011;50.772;7.730;2023-07-16T14:13:04;30.77;34.50
67093;SHT31;54011;50.772;7.730;2023-07-16T14:15:30;31.28;34.31
67093;SHT31;54011;50.772;7.730;2023-07-16T14:17:56;30.67;35.54
67093;SHT31;54011;50.772;7.730;2023-07-16T14:20:23;30.15;35.17
67093;SHT31;54011;50.772;7.730;2023-07-16T14:22:49;30.76;36.83
67093;SHT31;54011;50.772;7.730;2023-07-16T14:25:15;29.88;35.07
67093;SHT31;54011;50.772;7.730;2023-07-16T14:27:42;29.95;34.74
67093;SHT31;54011;50.772;7.730;2023-07-16T14:30:07;30.60;34.11
67093;SHT31;54011;50.772;7.730;2023-07-16T14:32:34;30.33;34.52
67093;SHT31;54011;50.772;7.730;2023-07-16T14:35:00;31.21;34.46
67093;SHT31;54011;50.772;7.730;2023-07-16T14:37:28;30.46;34.27
67093;SHT31;54011;50.772;7.730;2023-07-16T14:39:53;31.83;33.50
67093;SHT31;54011;50.772;7.730;2023-07-16T14:42:18;32.25;32.28
67093;SHT31;54011;50.772;7.730;2023-07-16T14:44:46;31.47;32.44
67093;SHT31;54011;50.772;7.730;2023-07-16T14:47:13;30.61;35.35
67093;SHT31;54011;50.772;7.730;2023-07-16T14:49:48;30.71;34.91
67093;SHT31;54011;50.772;7.730;2023-07-16T14:52:16;30.15;34.69
67093;SHT31;54011;50.772;7.730;2023-07-16T14:54:41;29.84;35.49
67093;SHT31;54011;50.772;7.730;2023-07-16T14:57:08;30.56;35.64
67093;SHT31;54011;50.772;7.730;2023-07-16T14:59:34;30.47;34.51
67093;SHT31;54011;50.772;7.730;2023-07-16T15:02:03;31.16;35.47
67093;SHT31;54011;50.772;7.730;2023-07-16T15:04:28;31.14;33.75
67093;SHT31;54011;50.772;7.730;2023-07-16T15:06:54;31.07;34.28
67093;SHT31;54011;50.772;7.730;2023-07-16T15:09:21;30.60;33.90
67093;SHT31;54011;50.772;7.730;2023-07-16T15:11:46;30.87;34.88
67093;SHT31;54011;50.772;7.730;2023-07-16T15:14:14;31.34;33.79
67093;SHT31;54011;50.772;7.730;2023-07-16T15:16:42;33.13;31.77
67093;SHT31;54011;50.772;7.730;2023-07-16T15:19:07;32.16;32.20
67093;SHT31;54011;50.772;7.730;2023-07-16T15:21:37;32.82;32.55
67093;SHT31;54011;50.772;7.730;2023-07-16T15:24:06;33.18;32.78
67093;SHT31;54011;50.772;7.730;2023-07-16T15:26:32;32.41;33.51
67093;SHT31;54011;50.772;7.730;2023-07-16T15:28:57;32.06;32.11